Butteville, Oregon
Current Conditions -  °F | °C
As of 1:53 AM on Friday 19 Dec 2014 (Local Time) from KUAO Reporting Station
Few Clouds Few Clouds  
Wind Chill: 41°   Ceiling: Unl
Heat Index: 46°   Visibility: 10mi
Dew Point: 44°   Wind: 9mph
Humidity: 93%   Direction: 180°S
Pressure: 29.9"   Gusts: NA
Location:  45.2365°N, 122.797°W
Report Text: KUAO 190953Z AUTO 18008KT 10SM FEW041 08/07 A2990 RMK AO2 SLP125 T00780067
Loading
Personal Weather Stations






























Interactive Weather Map New forecast layout! Learn more

10-Day Weather Forecast

Advertisements
Track Severe Weather on mobile